Time;durP1;ratioP1;P1;durP2;ratioP2;P2;SDS_P1;SDS_P2;PMS_P1;PMS_P2;Temp;Humidity;BMP_temperature;BMP_pressure;BME280_temperature;BME280_humidity;BME280_pressure;Samples;Min_cycle;Max_cycle;Signal;HPM_P1;HPM_P2
2022/05/19 00:01:38;;;;;;;4.63;4.23;;;20.90;81.70;;;;;;5033062;28;20432;-60
2022/05/19 00:04:05;;;;;;;4.90;4.40;;;20.90;81.80;;;;;;5033248;28;20464;-60
2022/05/19 00:06:32;;;;;;;6.33;4.30;;;20.90;82.00;;;;;;5033336;28;20785;-60
2022/05/19 00:09:01;;;;;;;4.90;4.10;;;20.90;82.20;;;;;;5032631;28;20460;-62
2022/05/19 00:11:32;;;;;;;6.10;4.47;;;20.80;82.30;;;;;;5032717;28;20449;-60
2022/05/19 00:13:59;;;;;;;6.60;5.17;;;20.80;82.40;;;;;;5032508;28;20895;-60
2022/05/19 00:16:27;;;;;;;6.00;4.57;;;20.90;82.70;;;;;;5032956;28;20818;-59
2022/05/19 00:18:54;;;;;;;10.93;5.07;;;20.80;82.70;;;;;;5032565;28;20459;-60
2022/05/19 00:21:21;;;;;;;4.50;4.10;;;20.80;83.00;;;;;;5032677;28;20949;-59
2022/05/19 00:23:49;;;;;;;5.27;4.77;;;20.80;83.00;;;;;;5032947;28;20822;-59
2022/05/19 00:26:17;;;;;;;4.73;4.13;;;20.80;83.20;;;;;;5036047;28;20945;-60
2022/05/19 00:28:44;;;;;;;5.13;4.33;;;20.80;83.40;;;;;;5036996;28;20453;-61
2022/05/19 00:31:11;;;;;;;5.00;4.60;;;20.70;83.50;;;;;;5037615;28;20444;-61
2022/05/19 00:33:38;;;;;;;6.97;4.30;;;20.70;83.70;;;;;;5036945;28;20447;-60
2022/05/19 00:36:09;;;;;;;5.00;4.60;;;20.70;83.90;;;;;;5036977;28;20443;-60
2022/05/19 00:38:37;;;;;;;5.07;4.60;;;20.70;84.00;;;;;;5036791;28;20460;-60
2022/05/19 00:41:04;;;;;;;4.93;4.53;;;20.70;84.10;;;;;;5036601;28;20947;-60
2022/05/19 00:43:36;;;;;;;4.90;4.40;;;20.60;84.10;;;;;;5036504;28;20456;-60
2022/05/19 00:46:07;;;;;;;5.67;5.07;;;20.60;84.20;;;;;;5036287;28;20421;-60
2022/05/19 00:48:44;;;;;;;7.20;5.27;;;20.60;84.30;;;;;;5036438;28;20433;-60
2022/05/19 00:51:13;;;;;;;5.10;4.70;;;20.60;84.40;;;;;;5036359;28;20436;-59
2022/05/19 00:53:46;;;;;;;5.67;5.00;;;20.60;84.60;;;;;;5036271;28;20449;-59
2022/05/19 00:56:18;;;;;;;4.93;4.40;;;20.60;84.80;;;;;;5036411;28;20787;-59
2022/05/19 00:58:53;;;;;;;5.00;4.50;;;20.60;85.00;;;;;;5036313;28;20440;-60
2022/05/19 01:01:20;;;;;;;5.80;5.20;;;20.60;85.10;;;;;;5036334;28;20473;-60
2022/05/19 01:03:52;;;;;;;5.63;5.10;;;20.50;85.20;;;;;;5035863;28;20936;-59
2022/05/19 01:06:22;;;;;;;6.23;5.33;;;20.50;85.50;;;;;;5036250;28;20425;-60
2022/05/19 01:08:53;;;;;;;7.20;5.37;;;20.50;85.70;;;;;;5035815;28;20436;-60
2022/05/19 01:11:20;;;;;;;5.83;4.70;;;20.50;85.70;;;;;;5035846;28;20956;-61
2022/05/19 01:13:49;;;;;;;5.40;4.90;;;20.50;85.80;;;;;;5035740;28;20937;-59
2022/05/19 01:16:17;;;;;;;6.57;4.80;;;20.40;85.80;;;;;;5035719;28;20923;-59
2022/05/19 01:18:45;;;;;;;6.20;5.60;;;20.40;86.00;;;;;;5035944;28;20447;-60
2022/05/19 01:21:15;;;;;;;4.70;4.30;;;20.40;86.20;;;;;;5035813;28;20448;-60
2022/05/19 01:24:02;;;;;;;5.50;4.67;;;20.40;86.50;;;;;;5035559;28;20916;-60
2022/05/19 01:26:44;;;;;;;6.43;5.23;;;20.30;86.60;;;;;;5035528;28;20425;-59
2022/05/19 01:29:12;;;;;;;5.00;4.60;;;20.30;86.80;;;;;;5035972;28;20425;-60
2022/05/19 01:31:49;;;;;;;6.10;5.10;;;20.30;87.10;;;;;;5035810;28;20448;-60
2022/05/19 01:34:19;;;;;;;6.13;4.70;;;20.20;87.30;;;;;;5035207;28;20992;-60
2022/05/19 01:36:46;;;;;;;6.37;4.60;;;20.20;87.50;;;;;;5034677;28;20480;-60
2022/05/19 01:39:16;;;;;;;5.23;4.73;;;20.20;87.80;;;;;;5035755;28;20448;-60
2022/05/19 01:42:09;;;;;;;8.13;4.90;;;20.10;88.00;;;;;;5035537;28;20448;-60
2022/05/19 01:44:48;;;;;;;5.27;4.77;;;20.10;88.20;;;;;;5035309;28;20465;-59
2022/05/19 01:47:23;;;;;;;8.13;5.50;;;20.10;88.40;;;;;;5035272;28;20433;-59
2022/05/19 01:49:54;;;;;;;6.33;5.73;;;20.10;88.80;;;;;;5035796;28;20470;-59
2022/05/19 01:52:26;;;;;;;7.00;5.23;;;20.00;89.00;;;;;;5035460;28;20425;-60
2022/05/19 01:55:02;;;;;;;7.10;5.90;;;20.00;89.20;;;;;;5035180;28;20492;-60
2022/05/19 01:57:35;;;;;;;6.60;5.10;;;20.00;89.60;;;;;;5035561;28;20433;-59
2022/05/19 02:00:07;;;;;;;6.23;5.63;;;19.90;89.90;;;;;;5035828;28;20555;-59
2022/05/19 02:02:42;;;;;;;7.57;5.63;;;19.90;90.10;;;;;;5035306;28;20437;-59
2022/05/19 02:05:18;;;;;;;5.73;4.97;;;19.90;90.30;;;;;;5035135;28;20471;-59
2022/05/19 02:07:47;;;;;;;6.43;5.50;;;19.90;90.40;;;;;;5035567;28;20468;-60
2022/05/19 02:10:17;;;;;;;6.37;5.43;;;19.90;90.50;;;;;;5035447;28;20815;-59
2022/05/19 02:12:48;;;;;;;5.50;4.93;;;19.90;90.60;;;;;;5035222;28;20445;-61
2022/05/19 02:15:17;;;;;;;6.17;5.17;;;19.80;90.60;;;;;;5034877;28;20488;-60
2022/05/19 02:17:46;;;;;;;9.10;5.77;;;19.80;90.70;;;;;;5035006;28;20510;-59
2022/05/19 02:20:17;;;;;;;5.47;5.07;;;19.80;90.80;;;;;;5034819;28;20460;-59
2022/05/19 02:22:45;;;;;;;7.03;5.50;;;19.80;90.80;;;;;;5035030;28;20457;-60
2022/05/19 02:25:18;;;;;;;6.63;6.03;;;19.80;90.90;;;;;;5034616;28;20460;-61
2022/05/19 02:27:52;;;;;;;6.47;4.87;;;19.80;91.00;;;;;;5034899;28;20429;-59
2022/05/19 02:30:22;;;;;;;6.00;4.90;;;19.80;91.10;;;;;;5034941;28;20429;-60
2022/05/19 02:32:49;;;;;;;5.50;5.00;;;19.70;91.10;;;;;;5034758;28;20472;-60
2022/05/19 02:35:17;;;;;;;6.20;5.30;;;19.70;91.20;;;;;;5034068;28;20489;-60
2022/05/19 02:37:45;;;;;;;8.23;5.87;;;19.70;91.30;;;;;;5034546;28;20456;-60
2022/05/19 02:40:15;;;;;;;6.70;5.80;;;19.70;91.40;;;;;;5034438;28;20441;-60
2022/05/19 02:42:42;;;;;;;6.77;5.50;;;19.60;91.40;;;;;;5034722;28;20456;-60
2022/05/19 02:45:13;;;;;;;5.63;5.17;;;19.60;91.50;;;;;;5034405;28;20456;-60
2022/05/19 02:47:40;;;;;;;6.10;5.70;;;19.70;91.60;;;;;;5033994;28;20748;-60
2022/05/19 02:50:09;;;;;;;6.47;5.57;;;19.60;91.70;;;;;;5033829;28;20818;-60
2022/05/19 02:52:36;;;;;;;6.17;5.67;;;19.60;91.70;;;;;;5034011;28;20483;-60
2022/05/19 02:55:04;;;;;;;6.43;5.80;;;19.60;91.80;;;;;;5033793;28;20485;-60
2022/05/19 02:57:32;;;;;;;6.43;5.83;;;19.60;91.90;;;;;;5033950;28;20794;-60
2022/05/19 02:59:59;;;;;;;7.37;6.17;;;19.50;91.90;;;;;;5033757;28;20457;-60
2022/05/19 03:02:28;;;;;;;5.80;5.30;;;19.50;91.90;;;;;;5034183;28;20444;-60
2022/05/19 03:04:55;;;;;;;6.47;5.90;;;19.50;92.00;;;;;;5034328;28;20480;-61
2022/05/19 03:07:22;;;;;;;6.30;5.67;;;19.50;92.00;;;;;;5034114;28;20463;-60
2022/05/19 03:09:49;;;;;;;5.80;5.20;;;19.50;92.10;;;;;;5034052;28;20490;-60
2022/05/19 03:12:16;;;;;;;7.37;5.60;;;19.50;92.20;;;;;;5034033;28;20455;-60
2022/05/19 03:14:43;;;;;;;6.27;5.70;;;19.50;92.20;;;;;;5033913;28;20484;-60
2022/05/19 03:17:11;;;;;;;8.33;5.53;;;19.50;92.30;;;;;;5033834;28;20456;-60
2022/05/19 03:19:40;;;;;;;6.27;5.33;;;19.40;92.30;;;;;;5033994;28;20445;-61
2022/05/19 03:22:07;;;;;;;5.90;5.50;;;19.40;92.30;;;;;;5033792;28;20460;-60
2022/05/19 03:24:36;;;;;;;5.43;5.03;;;19.40;92.30;;;;;;5033625;28;20582;-60
2022/05/19 03:27:03;;;;;;;5.60;5.10;;;19.40;92.40;;;;;;5033728;28;20937;-60
2022/05/19 03:29:30;;;;;;;6.13;5.53;;;19.40;92.40;;;;;;5033629;28;20453;-60
2022/05/19 03:32:00;;;;;;;5.97;5.37;;;19.40;92.40;;;;;;5033532;28;20456;-60
2022/05/19 03:34:27;;;;;;;5.57;4.97;;;19.50;92.40;;;;;;5033229;28;20483;-60
2022/05/19 03:36:55;;;;;;;5.63;4.97;;;19.50;92.40;;;;;;5033429;28;20492;-61
2022/05/19 03:39:23;;;;;;;6.33;5.73;;;19.40;92.40;;;;;;5033352;28;20457;-60
2022/05/19 03:41:50;;;;;;;5.60;5.20;;;19.40;92.40;;;;;;5034078;28;20449;-60
2022/05/19 03:44:17;;;;;;;5.63;5.10;;;19.40;92.40;;;;;;5033836;28;20836;-61
2022/05/19 03:46:44;;;;;;;6.03;5.43;;;19.50;92.40;;;;;;5034055;28;20445;-60
2022/05/19 03:49:13;;;;;;;7.17;5.00;;;19.40;92.30;;;;;;5034515;28;20453;-60
2022/05/19 03:51:42;;;;;;;5.63;5.13;;;19.40;92.30;;;;;;5033782;28;20452;-60
2022/05/19 03:54:10;;;;;;;5.93;5.43;;;19.50;92.20;;;;;;5033914;28;20473;-60
2022/05/19 03:56:38;;;;;;;6.60;6.00;;;19.50;92.10;;;;;;5033703;28;20468;-60
2022/05/19 03:59:05;;;;;;;7.00;5.80;;;19.60;92.10;;;;;;5033885;28;20452;-61
2022/05/19 04:01:33;;;;;;;6.10;5.57;;;19.60;91.90;;;;;;5033205;28;20456;-60
2022/05/19 04:04:00;;;;;;;6.17;5.67;;;19.60;91.80;;;;;;5033581;28;20475;-60
2022/05/19 04:09:45;;;;;;;5.90;5.40;;;19.80;91.20;;;;;;5111464;27;20553;-60
2022/05/19 04:12:14;;;;;;;5.57;5.07;;;19.90;91.10;;;;;;5110870;28;20540;-60
2022/05/19 04:14:41;;;;;;;5.77;5.17;;;19.90;90.90;;;;;;5110749;28;20543;-60
2022/05/19 04:17:08;;;;;;;5.30;4.90;;;20.00;90.80;;;;;;5111236;28;20441;-60
2022/05/19 04:19:35;;;;;;;7.30;5.40;;;20.10;90.60;;;;;;5111055;28;20442;-61
2022/05/19 04:22:03;;;;;;;8.07;5.90;;;20.20;90.40;;;;;;5111051;28;20442;-60
2022/05/19 04:24:30;;;;;;;6.10;5.30;;;20.30;90.20;;;;;;5110752;28;20468;-61
2022/05/19 04:26:58;;;;;;;6.90;5.47;;;20.30;90.00;;;;;;5110964;28;20449;-61
2022/05/19 04:29:25;;;;;;;5.97;5.37;;;20.40;90.00;;;;;;5110599;28;20469;-61
2022/05/19 04:31:52;;;;;;;4.90;4.50;;;20.40;89.00;;;;;;5110516;28;20449;-61
2022/05/19 04:34:19;;;;;;;5.10;4.60;;;20.50;88.40;;;;;;5110577;28;20834;-61
2022/05/19 04:36:46;;;;;;;5.50;4.73;;;20.60;87.90;;;;;;5110721;28;20476;-60
2022/05/19 04:39:14;;;;;;;6.40;5.00;;;20.70;87.20;;;;;;5110662;28;20857;-61
2022/05/19 04:41:41;;;;;;;5.83;5.30;;;20.80;86.50;;;;;;5110170;28;20445;-61
2022/05/19 04:44:09;;;;;;;5.37;4.90;;;20.90;85.60;;;;;;5110427;28;20473;-61
2022/05/19 04:46:36;;;;;;;5.53;4.97;;;21.00;84.70;;;;;;5110102;28;20955;-61
2022/05/19 04:49:04;;;;;;;5.83;5.33;;;21.10;83.80;;;;;;5110156;28;20509;-61
2022/05/19 04:51:31;;;;;;;6.67;5.07;;;21.20;83.10;;;;;;5110265;28;20450;-61
2022/05/19 04:53:58;;;;;;;8.53;5.60;;;21.30;82.40;;;;;;5109953;28;20462;-60
2022/05/19 04:56:25;;;;;;;5.70;5.20;;;21.40;81.60;;;;;;5110300;28;20937;-59
2022/05/19 04:58:52;;;;;;;5.20;4.70;;;21.50;80.80;;;;;;5109757;28;20816;-59
2022/05/19 05:01:20;;;;;;;5.90;5.00;;;21.60;80.20;;;;;;5109956;28;20437;-60
2022/05/19 05:03:47;;;;;;;6.40;5.23;;;21.70;79.30;;;;;;5110148;28;20441;-61
2022/05/19 05:06:15;;;;;;;5.30;4.80;;;21.80;78.50;;;;;;5103036;28;20941;-62
2022/05/19 05:08:42;;;;;;;5.83;5.07;;;22.00;77.70;;;;;;5124791;27;20567;-61
2022/05/19 05:11:09;;;;;;;5.37;4.70;;;22.10;76.70;;;;;;5119090;28;20533;-60
2022/05/19 05:13:36;;;;;;;6.63;5.20;;;22.30;75.70;;;;;;5115585;28;20472;-60
2022/05/19 05:16:03;;;;;;;8.03;5.37;;;22.50;74.60;;;;;;5119298;27;20461;-60
2022/05/19 05:18:32;;;;;;;6.20;5.57;;;22.60;73.50;;;;;;5118460;27;20457;-60
2022/05/19 05:21:04;;;;;;;4.93;4.43;;;22.70;72.50;;;;;;5096360;28;20532;-59
2022/05/19 05:23:31;;;;;;;5.20;4.80;;;22.80;71.60;;;;;;5101260;28;20433;-60
2022/05/19 05:25:58;;;;;;;6.03;5.10;;;22.90;70.70;;;;;;5100105;28;20898;-60
2022/05/19 05:28:25;;;;;;;5.70;5.23;;;22.90;70.10;;;;;;5096036;28;20474;-60
2022/05/19 05:30:52;;;;;;;5.23;4.73;;;22.90;69.80;;;;;;5095619;28;20462;-59
2022/05/19 05:33:20;;;;;;;4.97;4.50;;;22.90;69.70;;;;;;5096204;28;20520;-59
2022/05/19 05:35:48;;;;;;;6.40;4.80;;;23.00;69.30;;;;;;5102157;28;20461;-59
2022/05/19 05:38:15;;;;;;;5.60;5.10;;;23.20;68.40;;;;;;5116072;28;20478;-59
2022/05/19 05:40:43;;;;;;;4.77;4.37;;;23.50;67.20;;;;;;5116624;28;20484;-59
2022/05/19 05:43:13;;;;;;;4.97;4.60;;;23.70;66.00;;;;;;5098233;28;20454;-59
2022/05/19 05:45:41;;;;;;;5.90;4.20;;;23.90;64.70;;;;;;5096194;28;20913;-59
2022/05/19 05:48:09;;;;;;;6.77;4.90;;;24.10;63.70;;;;;;5095487;28;20484;-59
2022/05/19 05:50:37;;;;;;;4.90;4.50;;;24.20;62.60;;;;;;5095498;28;20442;-59
2022/05/19 05:53:06;;;;;;;4.10;3.80;;;24.20;62.00;;;;;;5095387;28;20492;-59
2022/05/19 05:55:34;;;;;;;4.93;4.53;;;24.20;61.60;;;;;;5095502;28;20468;-59
2022/05/19 05:58:04;;;;;;;5.17;4.67;;;24.20;61.40;;;;;;5095940;28;20851;-60
2022/05/19 06:00:32;;;;;;;7.83;5.20;;;24.20;60.90;;;;;;5095553;28;20446;-60
2022/05/19 06:02:59;;;;;;;4.83;4.40;;;24.30;60.70;;;;;;5094943;28;20960;-60
2022/05/19 06:08:10;;;;;;;7.60;4.60;;;24.50;60.00;;;;;;5036732;28;20469;-65
2022/05/19 06:10:38;;;;;;;6.50;4.77;;;24.50;59.70;;;;;;5036354;28;20449;-65
2022/05/19 06:13:05;;;;;;;5.33;4.33;;;24.60;59.50;;;;;;5049795;28;20471;-65
2022/05/19 06:15:33;;;;;;;5.37;4.40;;;24.60;59.10;;;;;;5056128;28;20537;-63
2022/05/19 06:18:00;;;;;;;4.90;4.40;;;24.60;58.90;;;;;;5074962;28;20451;-65
2022/05/19 06:20:27;;;;;;;5.33;4.83;;;24.60;58.70;;;;;;5075205;28;20465;-65
2022/05/19 06:22:54;;;;;;;5.23;4.50;;;24.70;58.60;;;;;;5075712;28;20950;-65
2022/05/19 06:25:24;;;;;;;5.80;4.40;;;24.70;58.30;;;;;;5071092;28;20832;-64
2022/05/19 06:27:52;;;;;;;5.07;4.67;;;24.80;57.80;;;;;;5074775;28;20575;-65
2022/05/19 06:30:21;;;;;;;5.30;4.70;;;24.90;57.30;;;;;;5075919;28;20486;-65
2022/05/19 06:32:48;;;;;;;4.20;3.90;;;25.00;56.80;;;;;;5079395;28;20530;-65
2022/05/19 06:35:17;;;;;;;4.07;3.73;;;25.20;56.20;;;;;;5096895;28;20791;-66
2022/05/19 06:37:45;;;;;;;5.70;3.87;;;25.30;55.70;;;;;;5098682;28;20830;-66
2022/05/19 06:40:15;;;;;;;4.50;4.10;;;25.40;55.20;;;;;;5101360;28;20469;-63
2022/05/19 06:42:43;;;;;;;7.37;4.50;;;25.50;54.80;;;;;;5093017;28;20443;-64
2022/05/19 06:45:12;;;;;;;4.00;3.53;;;25.50;54.40;;;;;;5077323;28;20450;-66
2022/05/19 06:47:39;;;;;;;8.33;4.40;;;25.50;54.00;;;;;;5077423;28;20502;-65
2022/05/19 06:50:09;;;;;;;5.00;4.17;;;25.50;54.00;;;;;;5073637;28;20486;-64
2022/05/19 06:52:43;;;;;;;5.57;4.23;;;25.60;53.50;;;;;;5075479;28;20467;-65
2022/05/19 06:55:11;;;;;;;4.17;3.87;;;25.70;53.10;;;;;;5075321;28;20427;-64
2022/05/19 06:57:38;;;;;;;4.50;4.10;;;25.80;52.80;;;;;;5075253;28;20475;-64
2022/05/19 07:00:10;;;;;;;5.87;3.80;;;25.80;52.50;;;;;;5076009;28;20443;-63
2022/05/19 07:02:37;;;;;;;3.90;3.50;;;25.90;52.50;;;;;;5074668;28;20899;-64
2022/05/19 07:05:04;;;;;;;5.03;4.53;;;26.10;52.20;;;;;;5073189;28;20462;-64
2022/05/19 07:07:31;;;;;;;4.23;3.67;;;26.20;51.60;;;;;;5073994;28;20478;-64
2022/05/19 07:09:59;;;;;;;5.00;4.30;;;26.40;51.20;;;;;;5073437;28;20482;-64
2022/05/19 07:12:26;;;;;;;4.30;3.70;;;26.40;50.90;;;;;;5083593;28;20450;-64
2022/05/19 07:14:55;;;;;;;5.17;3.93;;;26.30;50.90;;;;;;5082166;28;20451;-63
2022/05/19 07:17:24;;;;;;;6.70;4.60;;;26.20;51.00;;;;;;5081558;28;20479;-64
2022/05/19 07:22:36;;;;;;;4.90;4.50;;;26.20;51.10;;;;;;5078637;28;20894;-63
2022/05/19 07:25:06;;;;;;;5.60;4.50;;;26.20;51.20;;;;;;5076576;28;20447;-65
2022/05/19 07:27:33;;;;;;;8.40;4.33;;;26.30;51.20;;;;;;5074795;28;20573;-64
2022/05/19 07:30:00;;;;;;;4.60;4.23;;;26.30;51.30;;;;;;5074332;28;20478;-64
2022/05/19 07:32:29;;;;;;;5.63;4.20;;;26.40;51.00;;;;;;5072971;28;20455;-65
2022/05/19 07:34:57;;;;;;;5.27;4.63;;;26.50;50.60;;;;;;5073589;28;20447;-65
2022/05/19 07:37:24;;;;;;;4.37;4.07;;;26.60;50.30;;;;;;5073644;28;20471;-64
2022/05/19 07:39:52;;;;;;;4.60;3.67;;;26.70;49.90;;;;;;5076279;28;20533;-64
2022/05/19 07:42:19;;;;;;;4.93;4.00;;;26.90;49.60;;;;;;5075528;28;20443;-65
2022/05/19 07:44:46;;;;;;;6.20;3.90;;;27.00;49.20;;;;;;5077094;28;20435;-65
2022/05/19 07:47:14;;;;;;;4.33;4.00;;;27.10;49.10;;;;;;5073469;28;20467;-65
2022/05/19 07:49:43;;;;;;;5.70;3.80;;;27.10;48.90;;;;;;5075149;28;20499;-66
2022/05/19 07:52:11;;;;;;;4.27;3.83;;;27.20;48.70;;;;;;5072728;28;20443;-66
2022/05/19 07:54:38;;;;;;;4.30;3.83;;;27.20;48.40;;;;;;5076922;28;20477;-66
2022/05/19 07:57:06;;;;;;;4.00;3.60;;;27.40;48.20;;;;;;5075935;28;20478;-67
2022/05/19 07:59:34;;;;;;;4.47;4.07;;;27.40;48.00;;;;;;5073766;28;20504;-66
2022/05/19 08:02:02;;;;;;;4.30;3.90;;;27.40;47.90;;;;;;5074369;28;20443;-67
2022/05/19 08:04:29;;;;;;;3.87;3.50;;;27.50;47.50;;;;;;5074600;28;20451;-67
2022/05/19 08:06:58;;;;;;;4.53;3.97;;;27.60;47.30;;;;;;5074503;28;20470;-65
2022/05/19 08:12:16;;;;;;;4.33;3.93;;;27.60;46.70;;;;;;5073655;28;20492;-66
2022/05/19 08:17:28;;;;;;;5.10;3.87;;;27.50;46.40;;;;;;5073144;28;20877;-66
2022/05/19 08:19:55;;;;;;;4.70;4.23;;;27.50;46.50;;;;;;5072412;28;20447;-66
2022/05/19 08:22:23;;;;;;;4.83;4.40;;;27.50;46.40;;;;;;5072908;28;20562;-65
2022/05/19 08:24:50;;;;;;;4.13;3.73;;;27.50;46.40;;;;;;5073245;28;20439;-64
2022/05/19 08:27:18;;;;;;;4.73;4.27;;;27.40;46.40;;;;;;5072864;28;20556;-65
2022/05/19 08:29:45;;;;;;;7.40;4.00;;;27.30;46.50;;;;;;5061891;28;21056;-63
2022/05/19 08:32:12;;;;;;;3.80;3.50;;;27.30;46.70;;;;;;5057207;28;20447;-64
2022/05/19 08:34:39;;;;;;;6.33;3.60;;;27.20;46.60;;;;;;5072417;28;20454;-64
2022/05/19 08:37:07;;;;;;;4.90;3.50;;;27.10;46.60;;;;;;5072391;28;20819;-65
2022/05/19 08:39:36;;;;;;;6.63;4.60;;;27.10;46.50;;;;;;5072412;28;20954;-64
2022/05/19 08:42:06;;;;;;;4.40;4.10;;;27.10;46.30;;;;;;5072002;28;20934;-64
2022/05/19 08:44:36;;;;;;;4.33;4.00;;;27.30;46.10;;;;;;5072330;28;20446;-64
2022/05/19 08:47:05;;;;;;;4.63;4.00;;;27.50;45.60;;;;;;5072012;28;20462;-64
2022/05/19 08:49:41;;;;;;;5.63;3.90;;;27.60;45.10;;;;;;5071355;28;20475;-64
2022/05/19 08:52:10;;;;;;;3.93;3.37;;;27.70;44.90;;;;;;5072872;28;20453;-63
2022/05/19 08:54:44;;;;;;;4.57;4.10;;;27.80;44.70;;;;;;5072286;28;20451;-64
2022/05/19 08:57:17;;;;;;;5.43;3.90;;;28.00;44.60;;;;;;5076136;28;20470;-64
2022/05/19 08:59:57;;;;;;;7.27;3.63;;;28.10;44.20;;;;;;5076095;28;20462;-64
2022/05/19 09:02:31;;;;;;;6.67;3.77;;;28.30;43.80;;;;;;5075404;28;20431;-65
2022/05/19 09:05:13;;;;;;;3.50;3.20;;;28.40;43.40;;;;;;5076324;28;20424;-65
2022/05/19 09:07:57;;;;;;;6.00;3.53;;;28.60;43.10;;;;;;5080890;28;20467;-65
2022/05/19 09:10:41;;;;;;;4.87;4.33;;;28.60;42.90;;;;;;5082594;28;20474;-63
2022/05/19 09:13:17;;;;;;;5.23;3.73;;;28.70;42.60;;;;;;5076388;28;20461;-65
2022/05/19 09:15:47;;;;;;;9.60;3.77;;;28.70;42.30;;;;;;5076774;28;20437;-65
2022/05/19 09:18:16;;;;;;;3.03;2.80;;;28.90;42.20;;;;;;5076016;28;20894;-65
2022/05/19 09:20:48;;;;;;;3.57;3.30;;;29.00;41.90;;;;;;5075430;28;20450;-62
2022/05/19 09:23:15;;;;;;;4.90;3.77;;;29.10;41.50;;;;;;5075737;28;20434;-65
2022/05/19 09:25:48;;;;;;;10.00;4.87;;;29.10;41.30;;;;;;5074785;28;20451;-64
2022/05/19 09:28:15;;;;;;;3.43;3.13;;;29.20;41.20;;;;;;5070470;28;20436;-64
2022/05/19 09:30:49;;;;;;;4.17;3.40;;;29.40;41.00;;;;;;5055122;28;20537;-64
2022/05/19 09:33:19;;;;;;;4.50;3.80;;;29.40;40.90;;;;;;5055343;28;20423;-69
2022/05/19 09:35:51;;;;;;;6.47;3.70;;;29.40;40.80;;;;;;5075198;28;20447;-65
2022/05/19 09:38:29;;;;;;;4.30;3.90;;;29.40;41.00;;;;;;5075457;28;20426;-65
2022/05/19 09:41:03;;;;;;;4.50;4.10;;;29.40;41.00;;;;;;5075209;28;20435;-65
2022/05/19 09:43:34;;;;;;;7.83;3.70;;;29.40;41.00;;;;;;5074574;28;20474;-65
2022/05/19 09:46:04;;;;;;;5.77;3.90;;;29.60;40.90;;;;;;5075484;28;20458;-66
2022/05/19 09:48:35;;;;;;;4.20;3.83;;;29.60;40.90;;;;;;5074379;28;20783;-67
2022/05/19 09:51:04;;;;;;;3.80;3.37;;;29.60;40.80;;;;;;5074663;28;20220;-68
2022/05/19 09:53:38;;;;;;;3.87;3.47;;;29.60;40.90;;;;;;5074639;28;20465;-67
2022/05/19 09:56:10;;;;;;;4.10;3.80;;;29.80;40.80;;;;;;5074487;28;20470;-67
2022/05/19 09:58:42;;;;;;;7.60;3.70;;;30.10;40.40;;;;;;5074985;28;20911;-67
2022/05/19 10:01:18;;;;;;;3.50;3.20;;;30.30;40.00;;;;;;5075238;28;20435;-67
2022/05/19 10:03:50;;;;;;;4.33;3.20;;;30.50;39.60;;;;;;5074889;28;20438;-66
2022/05/19 10:06:20;;;;;;;8.37;3.33;;;30.70;39.40;;;;;;5073884;28;20997;-66
2022/05/19 10:08:49;;;;;;;4.17;3.57;;;30.80;39.10;;;;;;5073932;28;20440;-66
2022/05/19 10:11:27;;;;;;;4.33;3.93;;;31.00;38.90;;;;;;5074604;28;20486;-67
2022/05/19 10:13:58;;;;;;;4.10;3.33;;;31.10;38.60;;;;;;5075371;28;20438;-67
2022/05/19 10:16:34;;;;;;;4.20;3.40;;;31.10;38.50;;;;;;5074086;28;20474;-66
2022/05/19 10:19:15;;;;;;;3.80;3.27;;;31.00;38.50;;;;;;5074697;28;20525;-68
2022/05/19 10:21:59;;;;;;;7.30;6.60;;;31.00;38.70;;;;;;5074657;28;20431;-67
2022/05/19 10:24:48;;;;;;;3.83;3.13;;;31.10;38.40;;;;;;5073901;28;20547;-66
2022/05/19 10:33:11;;;;;;;6.73;3.10;;;31.20;37.60;;;;;;5073977;28;20451;-67
2022/05/19 10:35:53;;;;;;;3.43;3.13;;;31.30;37.30;;;;;;5073449;28;20806;-67
2022/05/19 10:38:36;;;;;;;5.23;3.30;;;31.30;37.00;;;;;;5075012;28;20427;-67
2022/05/19 10:41:13;;;;;;;5.03;3.40;;;31.30;36.90;;;;;;5074788;28;20427;-67
2022/05/19 10:44:05;;;;;;;3.63;3.33;;;31.40;36.80;;;;;;5074159;28;20926;-67
2022/05/19 10:46:42;;;;;;;4.47;4.07;;;31.40;36.70;;;;;;5074141;28;20589;-65
2022/05/19 10:49:36;;;;;;;4.60;3.30;;;31.40;36.90;;;;;;5073598;28;20454;-66
2022/05/19 10:52:11;;;;;;;4.00;3.00;;;31.50;36.80;;;;;;5074258;28;20477;-66
2022/05/19 10:54:48;;;;;;;4.80;4.07;;;31.60;36.70;;;;;;5074199;28;20429;-65
2022/05/19 10:57:38;;;;;;;5.00;3.80;;;31.40;36.70;;;;;;5072476;28;20465;-65
2022/05/19 11:00:19;;;;;;;4.93;3.83;;;31.40;37.10;;;;;;5074165;28;20508;-64
2022/05/19 11:03:12;;;;;;;5.50;3.73;;;31.60;37.10;;;;;;5073859;28;20434;-65
2022/05/19 11:05:49;;;;;;;13.03;3.50;;;31.80;36.80;;;;;;5072787;28;20439;-66
2022/05/19 11:08:28;;;;;;;4.00;3.30;;;31.80;36.70;;;;;;5077828;28;20455;-65
2022/05/19 11:11:02;;;;;;;3.73;3.43;;;31.70;37.00;;;;;;5082641;28;20492;-65
2022/05/19 11:13:42;;;;;;;5.67;4.50;;;31.80;37.00;;;;;;5081467;28;20423;-65
2022/05/19 11:16:22;;;;;;;3.13;2.83;;;31.90;36.80;;;;;;5080635;28;20494;-65
2022/05/19 11:18:55;;;;;;;3.80;3.50;;;32.10;36.40;;;;;;5079728;28;20465;-66
2022/05/19 11:21:28;;;;;;;3.20;2.90;;;32.20;36.20;;;;;;5087780;28;20422;-65
2022/05/19 11:24:00;;;;;;;4.53;3.50;;;32.30;35.80;;;;;;5093418;28;20920;-64
2022/05/19 11:26:32;;;;;;;4.10;3.50;;;32.40;35.70;;;;;;5055818;28;20471;-64
2022/05/19 11:29:24;;;;;;;4.07;2.97;;;32.40;35.60;;;;;;5056993;28;20436;-63
2022/05/19 11:31:59;;;;;;;4.83;3.20;;;32.30;35.90;;;;;;5058164;28;20515;-64
2022/05/19 11:34:36;;;;;;;3.97;3.60;;;32.20;36.00;;;;;;5060058;28;20419;-65
2022/05/19 11:37:13;;;;;;;3.13;2.93;;;32.20;36.00;;;;;;5055400;28;20467;-65
2022/05/19 11:39:48;;;;;;;5.60;3.60;;;32.30;36.00;;;;;;5055146;28;20546;-65
2022/05/19 11:42:38;;;;;;;11.07;8.00;;;32.30;35.70;;;;;;5054436;28;20434;-65
2022/05/19 11:45:11;;;;;;;14.10;12.80;;;32.50;35.20;;;;;;5054494;28;20432;-63
2022/05/19 11:56:21;;;;;;;3.77;3.13;;;33.90;32.50;;;;;;5053900;28;20577;-64
2022/05/19 11:58:48;;;;;;;5.50;3.40;;;34.20;31.60;;;;;;5053105;28;20459;-66
2022/05/19 12:01:22;;;;;;;4.47;3.90;;;34.40;31.40;;;;;;5053535;28;20467;-64
2022/05/19 12:03:59;;;;;;;6.53;3.17;;;34.50;31.40;;;;;;5053213;28;20436;-62
2022/05/19 12:06:30;;;;;;;4.90;3.73;;;34.70;31.30;;;;;;5062959;23;20508;-62
2022/05/19 12:09:00;;;;;;;5.20;3.10;;;34.70;31.30;;;;;;5032417;28;20909;-61
2022/05/19 12:11:30;;;;;;;5.67;3.37;;;34.80;31.40;;;;;;5032841;28;20464;-60
2022/05/19 12:14:15;;;;;;;3.93;3.40;;;34.80;31.30;;;;;;5033064;28;20447;-61
2022/05/19 12:16:52;;;;;;;4.40;3.40;;;34.70;31.40;;;;;;5033341;28;20967;-62
2022/05/19 12:19:36;;;;;;;4.17;2.70;;;34.70;31.50;;;;;;5032926;28;20928;-61
2022/05/19 12:22:06;;;;;;;5.70;3.47;;;34.30;31.50;;;;;;5034327;28;20456;-61
2022/05/19 12:24:36;;;;;;;5.30;3.20;;;33.90;32.00;;;;;;5033841;28;20937;-61
2022/05/19 12:27:13;;;;;;;3.60;3.30;;;33.90;32.30;;;;;;5034118;28;21018;-61
2022/05/19 12:29:44;;;;;;;3.60;3.30;;;34.10;32.20;;;;;;5034947;28;20441;-61
2022/05/19 12:32:17;;;;;;;8.07;3.40;;;34.30;32.10;;;;;;5038272;28;20461;-61
2022/05/19 12:34:50;;;;;;;3.93;3.50;;;34.30;31.90;;;;;;5038201;28;20449;-60
2022/05/19 12:37:41;;;;;;;3.63;3.33;;;34.00;32.20;;;;;;5037339;28;20980;-60
2022/05/19 12:40:32;;;;;;;3.20;2.90;;;33.60;32.70;;;;;;5032470;28;20459;-60
2022/05/19 12:43:14;;;;;;;3.07;2.87;;;33.30;33.20;;;;;;5036637;28;20517;-60
2022/05/19 12:45:46;;;;;;;3.50;3.20;;;32.80;33.60;;;;;;5037234;28;20448;-60
2022/05/19 12:48:25;;;;;;;3.57;2.83;;;32.60;34.20;;;;;;5036435;28;20473;-61
2022/05/19 12:51:12;;;;;;;3.50;3.20;;;32.60;34.20;;;;;;5036423;28;20469;-62
2022/05/19 12:53:44;;;;;;;5.43;3.20;;;32.80;34.00;;;;;;5035860;28;20432;-61
2022/05/19 12:56:32;;;;;;;3.90;2.90;;;33.00;33.80;;;;;;5035796;28;20433;-60
2022/05/19 12:59:07;;;;;;;5.20;3.00;;;33.10;33.60;;;;;;5035797;28;20818;-60
2022/05/19 13:01:36;;;;;;;3.70;3.13;;;33.10;33.60;;;;;;5036185;28;20417;-60
2022/05/19 13:04:19;;;;;;;7.30;3.73;;;33.20;33.50;;;;;;5036115;28;20453;-60
2022/05/19 13:06:54;;;;;;;6.10;3.40;;;33.00;33.50;;;;;;5041026;28;20483;-61
2022/05/19 13:09:34;;;;;;;3.30;3.00;;;33.00;34.30;;;;;;5056151;28;20455;-61
2022/05/19 13:12:05;;;;;;;6.57;2.90;;;33.00;33.50;;;;;;5055638;28;20482;-61
2022/05/19 13:14:40;;;;;;;5.50;3.07;;;32.90;33.60;;;;;;5055413;28;20494;-61
2022/05/19 13:17:13;;;;;;;4.03;3.20;;;32.70;33.50;;;;;;5055422;28;20501;-59
2022/05/19 13:19:42;;;;;;;4.27;3.87;;;32.50;33.80;;;;;;5055447;28;20444;-61
2022/05/19 13:22:19;;;;;;;4.00;2.93;;;32.50;34.00;;;;;;5055391;28;20440;-61
2022/05/19 13:24:47;;;;;;;7.57;6.97;;;32.60;34.10;;;;;;5055683;28;20454;-59
2022/05/19 13:30:22;;;;;;;7.87;6.73;;;32.80;33.90;;;;;;5055571;28;20409;-61
2022/05/19 13:32:49;;;;;;;6.80;6.20;;;33.00;33.90;;;;;;5055274;28;20435;-61
2022/05/19 13:35:20;;;;;;;5.97;3.40;;;33.10;33.90;;;;;;5055817;28;20783;-59
2022/05/19 13:37:48;;;;;;;4.57;3.20;;;33.20;33.80;;;;;;5054809;28;20464;-60